Time;durP1;ratioP1;P1;durP2;ratioP2;P2;SDS_P1;SDS_P2;PMS_P1;PMS_P2;Temp;Humidity;BMP_temperature;BMP_pressure;BME280_temperature;BME280_humidity;BME280_pressure;Samples;Min_cycle;Max_cycle;Signal;HPM_P1;HPM_P2
2022/02/16 00:00:26;;;;;;;1.70;1.60;;;;;;;5.25;100.00;99372.41;5114692;28;20187;-77
2022/02/16 00:03:06;;;;;;;1.87;1.77;;;;;;;5.22;100.00;99367.47;5113695;28;20180;-77
2022/02/16 00:06:03;;;;;;;1.70;1.60;;;;;;;5.20;100.00;99372.16;5111960;28;20290;-78
2022/02/16 00:08:35;;;;;;;2.20;2.00;;;;;;;5.20;100.00;99359.69;5111987;28;20253;-77
2022/02/16 00:11:04;;;;;;;2.30;2.10;;;;;;;5.20;100.00;99362.34;5112301;28;20575;-77
2022/02/16 00:13:38;;;;;;;2.37;2.17;;;;;;;5.25;100.00;99377.72;5118758;22;20232;-77
2022/02/16 00:16:10;;;;;;;2.30;2.10;;;;;;;5.25;100.00;99372.41;5111168;28;20181;-77
2022/02/16 00:18:42;;;;;;;2.73;2.53;;;;;;;5.23;100.00;99369.94;5118915;22;20254;-77
2022/02/16 00:21:32;;;;;;;2.40;2.20;;;;;;;5.23;100.00;99369.09;5111426;28;20184;-78
2022/02/16 00:24:08;;;;;;;2.50;2.30;;;;;;;5.26;100.00;99361.59;5112321;28;20202;-77
2022/02/16 00:26:39;;;;;;;2.93;2.73;;;;;;;5.33;100.00;99374.91;5111378;28;20185;-77
2022/02/16 00:29:16;;;;;;;3.00;2.80;;;;;;;5.32;100.00;99382.06;5112319;28;20225;-78
2022/02/16 00:31:45;;;;;;;3.33;3.03;;;;;;;5.26;100.00;99361.59;5111394;28;20547;-77
2022/02/16 00:34:15;;;;;;;2.87;2.67;;;;;;;5.30;100.00;99364.69;5111739;28;20183;-77
2022/02/16 00:37:13;;;;;;;3.13;2.90;;;;;;;5.26;100.00;99374.06;5111198;28;20216;-77
2022/02/16 00:40:03;;;;;;;3.50;3.10;;;;;;;5.31;100.00;99379.63;5110536;28;20248;-77
2022/02/16 00:42:38;;;;;;;3.90;3.60;;;;;;;5.43;100.00;99379.91;5109351;28;20196;-77
2022/02/16 00:45:17;;;;;;;4.40;4.00;;;;;;;5.38;100.00;99374.34;5124335;22;20262;-76
2022/02/16 00:47:48;;;;;;;4.63;4.23;;;;;;;5.34;100.00;99371.25;5118459;22;20224;-77
2022/02/16 00:50:23;;;;;;;4.53;4.13;;;;;;;5.30;100.00;99372.66;5117761;22;20326;-77
2022/02/16 00:53:01;;;;;;;4.50;4.10;;;;;;;5.34;100.00;99371.25;5110571;28;20180;-77
2022/02/16 00:55:38;;;;;;;4.67;4.27;;;;;;;5.36;100.00;99371.06;5117791;22;20654;-77
2022/02/16 00:58:15;;;;;;;4.73;4.33;;;;;;;5.48;100.00;99366.84;5094494;28;20180;-77
2022/02/16 01:00:45;;;;;;;4.57;4.17;;;;;;;5.41;100.00;99366.81;5111366;28;20172;-77
2022/02/16 01:03:17;;;;;;;5.40;4.90;;;;;;;5.44;100.00;99371.75;5110563;28;20180;-77
2022/02/16 01:05:50;;;;;;;4.73;4.30;;;;;;;5.45;100.00;99372.56;5110730;28;20206;-77
2022/02/16 01:08:35;;;;;;;5.53;5.03;;;;;;;5.43;100.00;99377.25;5111143;28;20189;-77
2022/02/16 01:11:04;;;;;;;5.20;4.80;;;;;;;5.42;100.00;99365.78;5110465;28;20189;-77
2022/02/16 01:13:49;;;;;;;5.23;4.73;;;;;;;5.43;100.00;99366.63;5110098;28;20203;-78
2022/02/16 01:16:20;;;;;;;5.57;5.07;;;;;;;5.43;100.00;99361.31;5109710;28;20227;-77
2022/02/16 01:18:53;;;;;;;7.27;6.20;;;;;;;5.52;100.00;99360.13;5116797;22;20192;-76
2022/02/16 01:21:25;;;;;;;6.47;5.77;;;;;;;5.49;100.00;99363.19;5088551;28;20188;-77
2022/02/16 01:24:00;;;;;;;7.07;5.97;;;;;;;5.48;100.00;99356.22;5090928;28;20264;-77
2022/02/16 01:26:31;;;;;;;6.67;6.07;;;;;;;5.47;100.00;99349.25;5092191;28;20258;-77
2022/02/16 01:29:03;;;;;;;6.73;6.03;;;;;;;5.49;100.00;99349.91;5090899;28;20191;-78
2022/02/16 01:31:50;;;;;;;7.17;6.47;;;;;;;5.48;100.00;99346.44;5090915;28;20195;-76
2022/02/16 01:34:22;;;;;;;7.33;6.63;;;;;;;5.47;100.00;99339.47;5090954;28;20199;-77
2022/02/16 01:36:48;;;;;;;7.40;6.70;;;;;;;5.48;100.00;99338.44;5091898;28;20603;-79
2022/02/16 01:39:41;;;;;;;7.87;7.03;;;;;;;5.43;100.00;99334.72;5117821;22;20220;-78
2022/02/16 01:42:19;;;;;;;7.47;6.77;;;;;;;5.47;100.00;99336.81;5111397;28;20179;-77
2022/02/16 01:45:09;;;;;;;7.90;7.10;;;;;;;5.45;100.00;99333.53;5111104;28;20180;-77
2022/02/16 01:47:44;;;;;;;8.63;7.43;;;;;;;5.51;100.00;99343.38;5109868;28;20260;-77
2022/02/16 01:50:15;;;;;;;8.20;7.40;;;;;;;5.57;100.00;99337.28;5093237;28;20208;-78
2022/02/16 01:52:46;;;;;;;8.03;7.23;;;;;;;5.61;100.00;99340.38;5098806;22;20216;-77
2022/02/16 01:55:30;;;;;;;7.93;7.13;;;;;;;5.64;100.00;99326.72;5100085;22;20254;-77
2022/02/16 01:58:05;;;;;;;8.30;7.50;;;;;;;5.73;100.00;99325.53;5093262;28;20188;-77
2022/02/16 02:00:50;;;;;;;7.90;7.10;;;;;;;5.62;100.00;99324.25;5116098;22;20258;-77
2022/02/16 02:03:21;;;;;;;8.30;7.50;;;;;;;5.74;100.00;99314.69;5093163;28;20192;-77
2022/02/16 02:05:59;;;;;;;8.63;7.83;;;;;;;5.77;100.00;99318.81;5110487;28;20196;-77
2022/02/16 02:08:50;;;;;;;7.90;7.13;;;;;;;5.69;100.00;99313.66;5092380;28;20282;-77
2022/02/16 02:11:16;;;;;;;7.83;7.03;;;;;;;5.92;100.00;99305.41;5109599;28;20210;-77
2022/02/16 02:14:16;;;;;;;7.97;7.17;;;;;;;5.78;100.00;99309.00;5098106;22;20232;-77
2022/02/16 02:17:15;;;;;;;7.80;7.10;;;;;;;5.71;100.00;99307.13;5108129;28;20189;-77
2022/02/16 02:19:45;;;;;;;7.53;6.83;;;;;;;5.75;100.00;99302.22;5092076;28;20203;-77
2022/02/16 02:22:26;;;;;;;7.83;7.13;;;;;;;5.70;100.00;99299.31;5091779;28;20184;-77
2022/02/16 02:24:54;;;;;;;8.10;7.40;;;;;;;5.65;100.00;99299.91;5109768;28;20192;-77
2022/02/16 02:27:31;;;;;;;8.00;7.20;;;;;;;5.61;100.00;99306.66;5110259;28;20173;-77
2022/02/16 02:30:14;;;;;;;7.57;6.87;;;;;;;5.70;100.00;99300.16;5111397;28;20205;-77
2022/02/16 02:32:51;;;;;;;7.77;7.07;;;;;;;5.74;100.00;99288.09;5101453;22;20224;-76
2022/02/16 02:35:20;;;;;;;8.13;7.33;;;;;;;5.68;100.00;99296.88;5108518;28;20200;-77
2022/02/16 02:37:54;;;;;;;7.43;6.73;;;;;;;5.74;100.00;99285.44;5079336;23;20217;-77
2022/02/16 02:40:21;;;;;;;8.07;7.37;;;;;;;5.74;100.00;99296.09;5090931;23;20287;-76
2022/02/16 02:42:49;;;;;;;7.60;6.97;;;;;;;5.74;100.00;99292.59;5069274;28;20174;-77
2022/02/16 02:45:38;;;;;;;7.80;7.10;;;;;;;5.81;100.00;99282.84;5113759;23;20231;-77
2022/02/16 02:48:07;;;;;;;8.33;7.50;;;;;;;5.83;100.00;99286.13;5091349;28;20192;-77
2022/02/16 02:50:37;;;;;;;8.07;7.37;;;;;;;5.78;100.00;99284.03;5091794;28;20235;-78
2022/02/16 02:53:06;;;;;;;7.80;7.00;;;;;;;5.76;100.00;99287.91;5092793;28;20191;-77
2022/02/16 02:55:39;;;;;;;7.83;7.13;;;;;;;5.81;100.00;99288.16;5103701;22;20232;-76
2022/02/16 02:58:06;;;;;;;7.37;6.77;;;;;;;5.87;100.00;99275.94;5080882;23;20232;-77
2022/02/16 03:00:37;;;;;;;8.00;7.30;;;;;;;5.83;100.00;99282.66;5170499;22;20231;-77
2022/02/16 03:03:04;;;;;;;7.13;6.43;;;;;;;5.80;100.00;99277.69;5164103;22;20228;-78
2022/02/16 03:05:31;;;;;;;7.70;7.00;;;;;;;5.72;100.00;99268.91;5065405;23;20259;-77
2022/02/16 03:07:58;;;;;;;7.57;6.87;;;;;;;5.90;100.00;99272.88;5086466;28;20193;-77
2022/02/16 03:10:29;;;;;;;6.80;6.20;;;;;;;5.83;100.00;99272.84;5086581;28;20255;-78
2022/02/16 03:12:57;;;;;;;6.77;6.17;;;;;;;5.85;100.00;99272.63;5085920;28;20189;-77
2022/02/16 03:15:30;;;;;;;6.87;6.20;;;;;;;5.82;100.00;99273.03;5089189;28;20272;-77
2022/02/16 03:17:57;;;;;;;6.90;6.30;;;;;;;5.76;100.00;99278.13;5088673;28;20177;-77
2022/02/16 03:20:24;;;;;;;6.73;6.13;;;;;;;5.87;100.00;99274.13;5117481;23;20334;-77
2022/02/16 03:22:53;;;;;;;6.63;6.03;;;;;;;5.79;100.00;99274.22;5110443;28;20194;-77
2022/02/16 03:25:28;;;;;;;6.77;6.17;;;;;;;5.74;100.00;99272.16;5110826;28;20198;-77
2022/02/16 03:28:02;;;;;;;6.97;6.27;;;;;;;5.72;100.00;99273.38;5127989;28;20606;-77
2022/02/16 03:30:30;;;;;;;6.33;5.83;;;;;;;5.71;100.00;99269.91;5127902;28;20198;-77
2022/02/16 03:33:17;;;;;;;6.47;5.87;;;;;;;5.73;100.00;99275.03;5118409;22;20243;-76
2022/02/16 03:35:45;;;;;;;6.03;5.53;;;;;;;5.83;100.00;99272.84;5112772;28;20251;-76
2022/02/16 03:38:15;;;;;;;6.27;5.70;;;;;;;5.73;100.00;99278.50;5111587;28;20202;-77
2022/02/16 03:40:41;;;;;;;6.50;5.93;;;;;;;5.73;100.00;99278.50;5110653;28;20184;-77
2022/02/16 03:43:09;;;;;;;6.53;5.97;;;;;;;5.67;100.00;99276.63;5132135;22;20236;-77
2022/02/16 03:45:38;;;;;;;6.53;5.93;;;;;;;5.67;100.00;99281.13;5072290;28;20181;-76
2022/02/16 03:48:04;;;;;;;6.10;5.50;;;;;;;5.65;100.00;99273.34;5089767;28;20192;-77
2022/02/16 03:50:33;;;;;;;6.03;5.53;;;;;;;5.73;100.00;99283.00;5090554;28;20212;-77
2022/02/16 03:53:04;;;;;;;6.33;5.73;;;;;;;5.82;100.00;99276.50;5111455;28;20180;-77
2022/02/16 03:55:38;;;;;;;6.30;5.57;;;;;;;5.90;100.00;99276.38;5094123;28;20576;-77
2022/02/16 03:58:10;;;;;;;5.40;4.90;;;;;;;5.92;100.00;99277.00;5110919;28;20243;-77
2022/02/16 04:00:40;;;;;;;5.23;4.83;;;;;;;6.08;100.00;99276.63;5092785;28;20192;-77
2022/02/16 04:03:10;;;;;;;5.00;4.60;;;;;;;6.04;100.00;99271.91;5110830;28;20243;-76
2022/02/16 04:05:42;;;;;;;5.30;4.90;;;;;;;6.03;100.00;99270.28;5093240;28;20506;-77
2022/02/16 04:08:10;;;;;;;5.00;4.60;;;;;;;6.03;100.00;99264.94;5111120;28;20188;-76
2022/02/16 04:10:45;;;;;;;5.40;4.90;;;;;;;6.04;100.00;99266.59;5093560;28;20705;-77
2022/02/16 04:13:19;;;;;;;5.13;4.60;;;;;;;6.09;100.00;99261.50;5111826;28;20176;-77
2022/02/16 04:15:48;;;;;;;5.00;4.60;;;;;;;6.12;100.00;99261.09;5093873;28;20218;-77
2022/02/16 04:18:20;;;;;;;4.80;4.30;;;;;;;6.09;100.00;99264.16;5111224;28;20177;-76
2022/02/16 04:20:51;;;;;;;4.60;4.20;;;;;;;6.06;100.00;99264.56;5110395;28;20180;-77
2022/02/16 04:23:38;;;;;;;5.43;4.93;;;;;;;6.06;100.00;99265.41;5111318;28;20172;-76
2022/02/16 04:26:06;;;;;;;5.33;4.83;;;;;;;6.02;100.00;99256.16;5110338;28;20264;-77
2022/02/16 04:28:39;;;;;;;5.40;4.90;;;;;;;6.03;100.00;99271.09;5110413;28;20180;-76
2022/02/16 04:31:06;;;;;;;5.10;4.60;;;;;;;6.05;100.00;99266.41;5099523;23;20408;-76
2022/02/16 04:33:35;;;;;;;5.03;4.50;;;;;;;6.00;100.00;99260.03;5093608;28;20192;-76
2022/02/16 04:36:04;;;;;;;4.60;4.20;;;;;;;6.05;100.00;99269.06;5118268;22;20230;-77
2022/02/16 04:38:33;;;;;;;4.63;4.23;;;;;;;6.12;100.00;99272.56;5077212;28;20188;-76
2022/02/16 04:41:00;;;;;;;4.87;4.40;;;;;;;6.16;100.00;99263.16;5093108;28;20279;-76
2022/02/16 04:43:29;;;;;;;4.90;4.40;;;;;;;6.05;100.00;99266.41;5094732;28;20214;-77
2022/02/16 04:46:02;;;;;;;4.23;3.90;;;;;;;6.02;100.00;99266.00;5094179;28;20192;-76
2022/02/16 04:48:37;;;;;;;4.30;3.90;;;;;;;5.97;100.00;99255.91;5111186;28;20185;-76
2022/02/16 04:51:38;;;;;;;3.83;3.53;;;;;;;5.99;100.00;99255.72;5115071;28;20211;-76
2022/02/16 04:54:09;;;;;;;4.03;3.50;;;;;;;5.94;100.00;99255.50;5094672;28;20220;-76
2022/02/16 04:56:36;;;;;;;4.40;4.00;;;;;;;5.92;100.00;99252.25;5094688;28;20180;-76
2022/02/16 04:59:13;;;;;;;4.10;3.80;;;;;;;6.01;100.00;99254.53;5110050;28;20175;-76
2022/02/16 05:01:40;;;;;;;4.00;3.60;;;;;;;6.02;100.00;99244.72;5100232;23;20304;-76
2022/02/16 05:04:12;;;;;;;4.43;4.03;;;;;;;5.91;100.00;99242.63;5075325;28;20288;-77
2022/02/16 05:06:48;;;;;;;4.40;4.00;;;;;;;5.79;100.00;99239.66;5111119;28;20236;-76
2022/02/16 05:09:18;;;;;;;4.40;4.00;;;;;;;5.64;100.00;99239.81;5112061;28;20192;-76
2022/02/16 05:11:49;;;;;;;4.67;4.27;;;;;;;5.65;100.00;99245.94;5120539;22;20226;-76
2022/02/16 05:14:32;;;;;;;4.10;3.80;;;;;;;5.53;100.00;99250.19;5090915;28;20220;-76
2022/02/16 05:17:08;;;;;;;4.30;3.90;;;;;;;5.40;100.00;99239.47;5100293;22;20310;-76
2022/02/16 05:19:47;;;;;;;4.27;3.87;;;;;;;5.25;100.00;99237.75;5110383;28;20204;-76
2022/02/16 05:22:19;;;;;;;4.13;3.73;;;;;;;5.17;100.00;99229.94;5112630;28;20234;-77
2022/02/16 05:24:52;;;;;;;4.20;3.60;;;;;;;5.11;100.00;99236.03;5124972;22;20238;-76
2022/02/16 05:27:25;;;;;;;3.90;3.60;;;;;;;5.03;100.00;99222.91;5089421;28;20426;-76
2022/02/16 05:29:54;;;;;;;3.63;3.33;;;;;;;4.95;100.00;99219.56;5098643;22;20276;-76
2022/02/16 05:32:26;;;;;;;3.47;3.17;;;;;;;4.93;100.00;99211.81;5074110;28;20201;-76
2022/02/16 05:34:54;;;;;;;3.60;3.30;;;;;;;4.70;100.00;99204.09;5191622;22;20224;-76
2022/02/16 05:37:29;;;;;;;4.20;3.60;;;;;;;4.67;100.00;99214.25;5085692;23;20223;-77
2022/02/16 05:40:14;;;;;;;3.90;3.30;;;;;;;4.52;100.00;99216.19;5109748;28;20271;-76
2022/02/16 05:42:44;;;;;;;3.63;3.23;;;;;;;4.42;100.00;99219.16;5095967;28;20218;-76
2022/02/16 05:45:20;;;;;;;3.43;3.13;;;;;;;4.31;100.00;99224.94;5102049;22;20257;-77
2022/02/16 05:47:50;;;;;;;3.37;3.07;;;;;;;4.16;100.00;99216.22;5079275;28;20191;-77
2022/02/16 05:50:34;;;;;;;4.10;3.70;;;;;;;4.10;100.00;99227.59;5111688;28;20208;-76
2022/02/16 05:53:03;;;;;;;4.27;3.33;;;;;;;3.99;100.00;99221.78;5061405;28;20255;-76
2022/02/16 05:55:33;;;;;;;3.83;3.53;;;;;;;3.89;100.00;99229.19;5094760;28;20188;-76
2022/02/16 05:58:03;;;;;;;5.90;3.80;;;;;;;3.78;100.00;99236.81;5112330;28;20199;-76
2022/02/16 06:00:32;;;;;;;4.93;3.70;;;;;;;3.67;100.00;99234.63;5092534;28;20184;-76
2022/02/16 06:03:01;;;;;;;6.00;3.70;;;;;;;3.61;100.00;99243.31;5092661;28;20211;-76
2022/02/16 06:05:42;;;;;;;4.07;3.70;;;;;;;3.54;100.00;99237.94;5099191;22;20286;31
2022/02/16 06:08:18;;;;;;;4.00;3.70;;;;;;;3.45;100.00;99234.53;5027766;28;20283;-76
2022/02/16 06:10:57;;;;;;;5.17;4.67;;;;;;;3.38;100.00;99244.25;5012146;28;20656;-77
2022/02/16 06:13:32;;;;;;;6.03;4.57;;;;;;;3.29;100.00;99226.81;5028502;28;20526;-76
2022/02/16 06:15:59;;;;;;;4.57;4.17;;;;;;;3.27;100.00;99230.63;5043400;23;20205;-75
2022/02/16 06:18:30;;;;;;;4.83;4.27;;;;;;;3.20;100.00;99227.06;5092172;28;20219;-75
2022/02/16 06:20:59;;;;;;;6.23;5.63;;;;;;;3.17;100.00;99230.91;5091858;28;20176;-76
2022/02/16 06:23:31;;;;;;;6.80;5.50;;;;;;;3.18;100.00;99239.66;5132415;22;20255;-76
2022/02/16 06:26:03;;;;;;;6.53;5.47;;;;;;;3.18;100.00;99237.84;5075228;28;20261;-76
2022/02/16 06:28:32;;;;;;;5.37;4.87;;;;;;;3.22;100.00;99240.97;5109788;28;20199;-76
2022/02/16 06:31:03;;;;;;;5.90;5.30;;;;;;;3.28;100.00;99241.03;5089997;28;20261;-76
2022/02/16 06:33:40;;;;;;;6.80;6.10;;;;;;;3.25;100.00;99238.75;5094528;22;20258;-75
2022/02/16 06:36:10;;;;;;;6.30;5.43;;;;;;;3.25;100.00;99246.72;5073238;28;20225;-76
2022/02/16 06:38:50;;;;;;;8.37;6.00;;;;;;;3.28;100.00;99237.56;5072980;28;20253;-76
2022/02/16 06:41:27;;;;;;;8.53;6.83;;;;;;;3.34;100.00;99236.84;5104670;28;20216;-76
2022/02/16 06:44:05;;;;;;;7.70;6.77;;;;;;;3.40;100.00;99241.41;5089002;28;20271;-76
2022/02/16 06:46:36;;;;;;;8.33;6.53;;;;;;;3.54;100.00;99243.25;5090830;28;20195;-76
2022/02/16 06:49:06;;;;;;;7.57;6.60;;;;;;;3.57;100.00;99236.75;5183990;22;20231;-75
2022/02/16 06:52:11;;;;;;;6.27;5.67;;;;;;;3.59;100.00;99243.50;5084088;28;20211;-76
2022/02/16 06:54:48;;;;;;;7.23;6.13;;;;;;;3.69;100.00;99245.84;5096115;28;20180;-76
2022/02/16 06:57:19;;;;;;;7.40;6.60;;;;;;;3.75;100.00;99248.59;5099383;22;20288;-75
2022/02/16 07:00:17;;;;;;;6.80;6.10;;;;;;;3.85;100.00;99248.31;5118265;22;20281;-75
2022/02/16 07:02:59;;;;;;;7.13;5.83;;;;;;;3.94;100.00;99253.31;5078848;28;20263;-76
2022/02/16 07:06:02;;;;;;;6.43;5.90;;;;;;;4.08;100.00;99245.50;5092308;28;20188;-76
2022/02/16 07:08:32;;;;;;;7.03;6.33;;;;;;;4.17;100.00;99242.56;5091139;28;20195;-75
2022/02/16 07:11:02;;;;;;;7.10;6.40;;;;;;;4.30;100.00;99245.34;5090423;28;20582;-76
2022/02/16 07:13:35;;;;;;;6.83;6.20;;;;;;;4.42;100.00;99243.84;5111151;28;20213;-76
2022/02/16 07:16:08;;;;;;;7.70;6.53;;;;;;;4.53;100.00;99253.09;5097121;28;20206;-75
2022/02/16 07:18:45;;;;;;;6.83;5.90;;;;;;;4.65;100.00;99253.44;5113826;28;20180;-76
2022/02/16 07:21:46;;;;;;;7.27;6.47;;;;;;;4.81;100.00;99255.81;5109995;28;20192;-76
2022/02/16 07:24:20;;;;;;;7.80;6.40;;;;;;;4.89;100.00;99242.41;5104094;22;20291;-76
2022/02/16 07:27:22;;;;;;;6.63;6.07;;;;;;;4.96;100.00;99240.63;5091285;28;20202;-76
2022/02/16 07:30:36;;;;;;;7.73;7.03;;;;;;;5.11;100.00;99243.19;5143126;22;20268;-76
2022/02/16 07:33:16;;;;;;;8.33;7.10;;;;;;;5.18;100.00;99242.19;5136399;28;20203;-76
2022/02/16 07:35:51;;;;;;;7.50;6.80;;;;;;;5.27;100.00;99242.88;5137749;28;20180;-76
2022/02/16 07:38:37;;;;;;;7.40;6.60;;;;;;;5.32;100.00;99238.59;5122331;28;20191;-75
2022/02/16 07:41:14;;;;;;;7.60;6.90;;;;;;;5.40;100.00;99237.66;5157726;22;20228;-76
2022/02/16 07:44:09;;;;;;;7.87;6.97;;;;;;;5.47;100.00;99227.88;5105703;22;20211;-75
2022/02/16 07:46:55;;;;;;;6.80;6.10;;;;;;;5.58;100.00;99237.94;5152045;27;20199;-76
2022/02/16 07:49:24;;;;;;;10.07;9.00;;;;;;;5.67;100.00;99244.75;5137401;22;20245;-76
2022/02/16 07:52:31;;;;;;;15.70;14.10;;;;;;;5.73;100.00;99240.47;5136736;28;20226;-76
2022/02/16 07:55:10;;;;;;;7.57;6.87;;;;;;;5.81;100.00;99242.13;5100459;28;20196;-76
2022/02/16 07:57:48;;;;;;;6.37;5.77;;;;;;;5.93;100.00;99233.41;5095289;28;20192;-76
2022/02/16 08:00:28;;;;;;;6.43;5.83;;;;;;;5.99;100.00;99229.97;5102947;22;20269;-75
2022/02/16 08:03:12;;;;;;;6.07;5.47;;;;;;;6.25;100.00;99237.22;5112975;28;20211;-76
2022/02/16 08:06:08;;;;;;;6.83;6.03;;;;;;;6.12;100.00;99235.31;5112907;28;20181;-76
2022/02/16 08:08:39;;;;;;;5.70;5.20;;;;;;;6.14;100.00;99224.50;5095862;28;20188;-76
2022/02/16 08:11:16;;;;;;;7.23;5.60;;;;;;;6.28;100.00;99226.16;5094534;28;20238;-75
2022/02/16 08:13:53;;;;;;;5.87;5.37;;;;;;;6.24;100.00;99229.44;5093193;28;20222;-75
2022/02/16 08:16:30;;;;;;;5.90;5.40;;;;;;;6.32;100.00;99230.06;5113136;28;20185;-76
2022/02/16 08:19:06;;;;;;;7.73;5.70;;;;;;;6.42;100.00;99224.34;5115929;28;20184;-75
2022/02/16 08:22:00;;;;;;;6.37;5.27;;;;;;;6.48;100.00;99216.38;5133483;28;20175;-76
2022/02/16 08:24:51;;;;;;;5.27;4.77;;;;;;;6.59;100.00;99217.59;5089599;28;20205;-76
2022/02/16 08:28:09;;;;;;;5.20;4.80;;;;;;;6.78;100.00;99216.78;5086069;28;20189;-76
2022/02/16 08:30:46;;;;;;;4.50;4.10;;;;;;;6.85;100.00;99212.28;5106357;22;20238;-76
2022/02/16 08:33:49;;;;;;;4.60;4.20;;;;;;;6.99;100.00;99213.91;5083495;28;20191;-76
2022/02/16 08:36:31;;;;;;;4.33;4.03;;;;;;;7.11;100.00;99210.59;5111196;22;20224;-75
2022/02/16 08:39:04;;;;;;;4.00;3.60;;;;;;;7.26;100.00;99211.19;5109734;28;20180;-76
2022/02/16 08:41:40;;;;;;;4.63;4.23;;;;;;;7.35;100.00;99199.28;5107064;28;20183;-75
2022/02/16 08:44:09;;;;;;;4.10;3.73;;;;;;;7.42;100.00;99197.41;5109194;28;20342;-76
2022/02/16 08:46:39;;;;;;;4.17;3.87;;;;;;;7.57;100.00;99194.50;5108895;28;20196;-76
2022/02/16 08:49:06;;;;;;;4.40;3.73;;;;;;;7.72;100.00;99182.56;5109585;28;20192;-76
2022/02/16 08:51:52;;;;;;;3.67;3.30;;;;;;;7.83;100.00;99181.06;5118660;22;20232;-76
2022/02/16 08:54:27;;;;;;;4.70;3.27;;;;;;;7.98;100.00;99168.25;5096378;28;20189;-76
2022/02/16 08:56:57;;;;;;;4.27;3.43;;;;;;;8.10;100.00;99168.41;5110473;28;20184;-76
2022/02/16 08:59:25;;;;;;;4.90;3.60;;;;;;;8.18;100.00;99165.47;5108358;28;20240;-76
2022/02/16 09:01:57;;;;;;;4.27;3.07;;;;;;;8.37;100.00;99162.69;5107998;28;20184;-76
2022/02/16 09:04:32;;;;;;;2.40;2.00;;;;;;;8.51;100.00;99163.41;5112162;28;20508;-75
2022/02/16 09:09:47;;;;;;;3.23;2.10;;;;;;;8.63;100.00;99144.84;5117127;22;20229;-75
2022/02/16 09:12:22;;;;;;;2.03;1.93;;;;;;;8.75;100.00;99148.44;5109460;28;20211;-75
2022/02/16 09:14:50;;;;;;;3.60;2.10;;;;;;;8.78;100.00;99148.81;5130539;28;20238;-75
2022/02/16 09:17:18;;;;;;;3.33;2.07;;;;;;;8.91;100.00;99142.53;5126473;28;20187;-76
2022/02/16 09:19:57;;;;;;;2.90;2.00;;;;;;;9.08;100.00;99134.75;5128248;28;20176;-75
2022/02/16 09:22:34;;;;;;;2.33;2.03;;;;;;;9.20;100.00;99136.47;5130840;28;20172;-76
2022/02/16 09:25:21;;;;;;;2.30;2.10;;;;;;;9.37;100.00;99135.88;5113375;22;20224;-76
2022/02/16 09:28:00;;;;;;;2.33;2.10;;;;;;;9.37;100.00;99135.88;5090451;28;20260;-76
2022/02/16 09:30:40;;;;;;;2.30;2.10;;;;;;;9.42;100.00;99118.13;5089220;28;20212;-76
2022/02/16 09:33:10;;;;;;;2.50;2.30;;;;;;;9.54;100.00;99124.34;5092303;28;20193;-76
2022/02/16 09:35:43;;;;;;;2.77;2.40;;;;;;;9.60;100.00;99126.13;5092643;28;20184;-75
2022/02/16 09:38:34;;;;;;;2.40;2.20;;;;;;;9.64;100.00;99110.44;4787909;23;8626468;-76
2022/02/16 09:41:43;;;;;;;2.30;2.10;;;;;;;9.66;100.00;99114.50;5091439;28;20196;-76
2022/02/16 09:44:50;;;;;;;2.10;1.93;;;;;;;9.74;100.00;99105.38;5102948;22;20230;-76
2022/02/16 09:47:38;;;;;;;2.73;2.53;;;;;;;9.81;100.00;99097.22;5124393;22;20223;-75
2022/02/16 09:50:14;;;;;;;2.80;2.23;;;;;;;9.87;100.00;99088.31;5117150;28;20167;-73
2022/02/16 09:52:58;;;;;;;2.90;2.20;;;;;;;9.96;100.00;99078.91;5130867;28;20628;-73
2022/02/16 09:55:55;;;;;;;2.67;2.27;;;;;;;10.18;100.00;99080.03;5132407;28;20179;-75
2022/02/16 09:58:52;;;;;;;2.90;2.20;;;;;;;10.11;100.00;99063.25;5104380;28;20278;-76
2022/02/16 10:01:23;;;;;;;2.43;2.23;;;;;;;10.30;100.00;99054.09;5112252;28;20210;-74
2022/02/16 10:04:03;;;;;;;2.13;1.93;;;;;;;10.28;100.00;99056.19;5129462;28;20303;-73
2022/02/16 10:06:48;;;;;;;2.27;2.07;;;;;;;10.30;100.00;99056.78;5130084;28;20192;-73
2022/02/16 10:09:27;;;;;;;2.03;1.83;;;;;;;10.40;100.00;99054.34;5129650;28;20184;-73
2022/02/16 10:12:08;;;;;;;1.60;1.50;;;;;;;10.47;100.00;99044.31;5129807;28;20200;-73
2022/02/16 10:14:39;;;;;;;1.43;1.30;;;;;;;10.57;100.00;99031.16;5127810;28;20205;-73
2022/02/16 10:17:30;;;;;;;1.53;1.43;;;;;;;10.69;95.30;99033.81;5129286;28;20231;-74
2022/02/16 10:20:03;;;;;;;1.50;1.40;;;;;;;10.76;95.07;99028.34;5127578;28;20171;-73
2022/02/16 10:22:45;;;;;;;1.53;1.43;;;;;;;10.89;94.48;99036.13;5127409;28;20179;-73
2022/02/16 10:25:52;;;;;;;1.50;1.40;;;;;;;11.02;91.35;99027.81;5127531;28;20210;-76
2022/02/16 10:28:47;;;;;;;1.70;1.60;;;;;;;11.06;90.82;99020.16;5127121;28;20184;-73
2022/02/16 10:31:19;;;;;;;1.50;1.40;;;;;;;11.13;90.18;99012.78;5107469;28;20187;-73
2022/02/16 10:33:55;;;;;;;1.60;1.50;;;;;;;11.19;90.72;99007.28;5127099;28;20186;-73
2022/02/16 10:36:25;;;;;;;1.63;1.40;;;;;;;11.28;88.21;98996.97;5126194;28;20187;-73
2022/02/16 10:39:01;;;;;;;1.47;1.37;;;;;;;11.35;87.08;98993.09;5126207;28;20202;-73
2022/02/16 10:41:58;;;;;;;1.73;1.63;;;;;;;11.49;94.46;98988.25;5126164;28;20199;-73
2022/02/16 10:44:33;;;;;;;2.17;1.97;;;;;;;11.63;93.68;98984.22;5199630;22;20232;-74
2022/02/16 10:47:07;;;;;;;2.33;2.13;;;;;;;11.67;92.64;98985.34;5105596;28;20184;-73
2022/02/16 10:49:38;;;;;;;1.40;1.30;;;;;;;11.77;89.36;98987.44;5105055;22;20228;-73
2022/02/16 10:52:18;;;;;;;2.10;1.60;;;;;;;11.80;86.30;98974.34;4983956;28;20270;-73
2022/02/16 10:54:59;;;;;;;1.70;1.60;;;;;;;11.85;86.63;98969.06;5008537;23;20184;-73
2022/02/16 10:57:35;;;;;;;3.00;1.90;;;;;;;11.93;82.91;98959.78;5105451;28;20202;-73
2022/02/16 11:00:15;;;;;;;1.93;1.70;;;;;;;12.02;85.88;98952.13;5105547;28;20195;-73
2022/02/16 11:02:55;;;;;;;1.57;1.47;;;;;;;12.12;84.65;98930.81;5208189;22;20168;-73
2022/02/16 11:05:23;;;;;;;2.23;1.80;;;;;;;12.16;85.07;98932.75;5111132;28;20212;-73
2022/02/16 11:08:00;;;;;;;3.93;1.53;;;;;;;12.34;85.12;98937.84;5095285;28;20173;-73
2022/02/16 11:11:20;;;;;;;1.40;1.30;;;;;;;12.38;82.34;98931.97;5114650;28;20184;-73
2022/02/16 11:14:05;;;;;;;1.50;1.40;;;;;;;12.46;83.64;98923.50;5111001;28;20195;-74
2022/02/16 11:16:38;;;;;;;1.80;1.70;;;;;;;12.53;80.00;98924.13;5117501;22;20220;-73
2022/02/16 11:19:40;;;;;;;1.33;1.23;;;;;;;12.48;81.03;98916.81;5092148;28;20554;-74
2022/02/16 11:22:18;;;;;;;1.10;1.10;;;;;;;12.59;80.27;98897.09;5110351;28;20294;-74
2022/02/16 11:24:50;;;;;;;2.93;1.23;;;;;;;12.67;79.72;98893.13;5108692;28;20181;-75
2022/02/16 11:27:38;;;;;;;1.67;1.10;;;;;;;12.81;76.84;98894.38;5105012;28;20168;-76
2022/02/16 11:30:09;;;;;;;1.20;1.10;;;;;;;12.84;76.26;98885.81;5105323;28;20178;-77
2022/02/16 11:32:41;;;;;;;1.57;1.20;;;;;;;12.94;76.01;98875.16;5100738;28;20244;-78
2022/02/16 11:35:29;;;;;;;1.60;1.17;;;;;;;13.00;74.80;98884.09;5099017;28;20290;-76
2022/02/16 11:38:11;;;;;;;1.57;1.10;;;;;;;13.07;74.72;98879.31;5101158;28;20180;-82
2022/02/16 11:40:40;;;;;;;1.30;1.20;;;;;;;13.10;74.02;98876.16;5099113;28;20199;-78
2022/02/16 11:43:10;;;;;;;1.10;1.00;;;;;;;13.27;71.21;98878.75;5099202;28;20267;-79
2022/02/16 11:45:38;;;;;;;1.00;1.00;;;;;;;13.31;71.43;98874.47;5048315;28;20472;-76
2022/02/16 11:48:07;;;;;;;1.00;0.90;;;;;;;13.34;63.93;98864.03;5081006;28;20649;-77
2022/02/16 11:50:39;;;;;;;0.97;0.70;;;;;;;13.39;62.41;98853.28;5081252;28;20209;-82
2022/02/16 11:53:08;;;;;;;0.70;0.70;;;;;;;13.45;62.94;98848.78;5098841;28;20555;-80
2022/02/16 11:55:42;;;;;;;1.43;0.80;;;;;;;13.65;64.61;98835.47;5098547;28;20492;-76
2022/02/16 11:58:17;;;;;;;1.00;0.70;;;;;;;13.69;60.16;98839.28;5064820;28;20243;-83
2022/02/16 12:00:58;;;;;;;0.80;0.80;;;;;;;13.78;58.21;98826.13;5064182;28;20205;-77
2022/02/16 12:03:30;;;;;;;0.60;0.60;;;;;;;13.75;58.71;98822.09;5081004;28;20189;-81
2022/02/16 12:06:12;;;;;;;1.43;0.80;;;;;;;13.84;56.40;98825.09;5098498;28;20178;-82
2022/02/16 12:08:48;;;;;;;0.70;0.70;;;;;;;13.94;56.05;98819.78;5080731;28;20202;-76
2022/02/16 12:11:28;;;;;;;1.00;0.70;;;;;;;13.95;55.78;98811.41;5098197;28;20205;-77
2022/02/16 12:14:01;;;;;;;0.70;0.70;;;;;;;14.01;53.92;98805.00;5097659;28;20177;-82
2022/02/16 12:16:43;;;;;;;1.13;0.80;;;;;;;14.05;56.11;98810.66;5080765;28;20578;-75
2022/02/16 12:19:19;;;;;;;0.70;0.70;;;;;;;14.14;55.12;98790.25;5080889;28;20186;-77
2022/02/16 12:21:49;;;;;;;0.57;0.57;;;;;;;14.16;56.21;98790.00;5080619;28;20201;-80